Time;durP1;ratioP1;P1;durP2;ratioP2;P2;SDS_P1;SDS_P2;PMS_P1;PMS_P2;Temp;Humidity;BMP_temperature;BMP_pressure;BME280_temperature;BME280_humidity;BME280_pressure;Samples;Min_cycle;Max_cycle;Signal;HPM_P1;HPM_P2
2022/06/08 00:00:57;;;;;;;5.22;2.67;;;;;;;22.66;52.29;94261.72;5090695;28;20200;-73
2022/06/08 00:03:29;;;;;;;3.25;2.50;;;;;;;22.65;52.36;94265.34;5072705;28;20600;-74
2022/06/08 00:05:56;;;;;;;3.50;3.00;;;;;;;22.63;52.41;94257.75;5070909;28;20194;-73
2022/06/08 00:08:23;;;;;;;2.78;2.58;;;;;;;22.61;52.64;94264.97;5070375;28;20183;-73
2022/06/08 00:10:50;;;;;;;2.40;2.20;;;;;;;22.58;52.85;94255.00;5077898;28;20205;-73
2022/06/08 00:13:17;;;;;;;4.30;2.83;;;;;;;22.54;52.64;94253.88;5088741;28;20272;-73
2022/06/08 00:15:44;;;;;;;4.20;2.42;;;;;;;22.54;52.81;94246.84;5090507;28;20186;-73
2022/06/08 00:18:11;;;;;;;2.75;2.55;;;;;;;22.53;52.92;94249.66;5089976;28;20640;-73
2022/06/08 00:20:40;;;;;;;4.93;2.47;;;;;;;22.50;52.99;94242.31;5090625;28;20282;-73
2022/06/08 00:23:08;;;;;;;3.97;2.50;;;;;;;22.50;53.06;94250.13;5090427;28;20205;-73
2022/06/08 00:25:35;;;;;;;2.70;2.50;;;;;;;22.47;52.92;94259.16;5090082;28;20264;-73
2022/06/08 00:28:02;;;;;;;2.55;2.30;;;;;;;22.43;53.13;94250.19;5090008;28;20712;-73
2022/06/08 00:30:29;;;;;;;3.78;2.88;;;;;;;22.44;53.26;94248.38;5077912;28;20200;-73
2022/06/08 00:32:56;;;;;;;3.53;2.83;;;;;;;22.41;53.26;94252.25;5070181;28;20265;-73
2022/06/08 00:35:24;;;;;;;3.55;2.58;;;;;;;22.40;53.44;94250.63;5069713;28;20580;-73
2022/06/08 00:37:52;;;;;;;3.28;2.83;;;;;;;22.38;53.44;94250.06;5070061;28;20186;-72
2022/06/08 00:40:21;;;;;;;3.28;3.00;;;;;;;22.36;53.57;94254.69;5069554;28;20573;-73
2022/06/08 00:42:50;;;;;;;7.28;2.72;;;;;;;22.29;53.75;94235.78;5081599;28;20204;-72
2022/06/08 00:45:20;;;;;;;4.30;2.80;;;;;;;22.31;53.71;94244.16;5089779;28;20201;-72
2022/06/08 00:47:51;;;;;;;3.60;3.03;;;;;;;22.28;53.65;94253.22;5090161;28;20896;-72
2022/06/08 00:50:22;;;;;;;3.85;3.03;;;;;;;22.27;53.82;94248.22;5072666;28;20197;-73
2022/06/08 00:52:51;;;;;;;5.68;2.83;;;;;;;22.25;53.90;94248.44;5070076;28;20194;-72
2022/06/08 00:55:23;;;;;;;2.90;2.60;;;;;;;22.23;53.87;94247.06;5070788;28;20618;-72
2022/06/08 00:57:53;;;;;;;2.70;2.50;;;;;;;22.22;53.93;94245.47;5070152;28;20194;-72
2022/06/08 01:00:22;;;;;;;4.28;3.00;;;;;;;22.19;54.21;94251.94;5069417;28;20623;-72
2022/06/08 01:02:49;;;;;;;3.92;2.70;;;;;;;22.17;54.11;94245.34;5070205;28;20187;-73
2022/06/08 01:05:22;;;;;;;4.05;2.92;;;;;;;22.16;54.09;94241.16;5069534;28;20240;-74
2022/06/08 01:07:51;;;;;;;2.70;2.50;;;;;;;22.13;54.35;94246.81;5072236;28;20227;-73
2022/06/08 01:10:26;;;;;;;2.88;2.67;;;;;;;22.08;54.39;94234.41;5089946;28;20209;-73
2022/06/08 01:12:53;;;;;;;3.95;3.25;;;;;;;22.10;54.39;94242.78;5089722;28;20563;-72
2022/06/08 01:15:24;;;;;;;2.90;2.70;;;;;;;22.08;54.49;94238.81;5089758;28;20186;-73
2022/06/08 01:17:51;;;;;;;3.35;2.75;;;;;;;21.98;54.63;94227.13;5090197;28;20610;-72
2022/06/08 01:20:19;;;;;;;3.28;2.88;;;;;;;21.98;54.71;94223.72;5089619;28;20193;-72
2022/06/08 01:22:47;;;;;;;5.28;3.05;;;;;;;22.01;54.80;94231.88;5089744;28;20181;-74
2022/06/08 01:25:15;;;;;;;4.20;2.90;;;;;;;21.99;54.68;94227.91;5089932;28;20220;-73
2022/06/08 01:28:06;;;;;;;3.28;2.60;;;;;;;21.98;54.79;94224.53;5081353;28;20179;-73
2022/06/08 01:30:43;;;;;;;2.80;2.60;;;;;;;21.95;54.90;94224.94;5072549;28;20194;-73
2022/06/08 01:33:44;;;;;;;3.05;2.83;;;;;;;21.94;54.86;94227.78;5073156;28;20185;-72
2022/06/08 01:36:41;;;;;;;2.85;2.47;;;;;;;21.89;54.86;94230.22;5031056;28;20194;-73
2022/06/08 01:39:17;;;;;;;3.13;2.75;;;;;;;21.88;54.98;94226.84;5030819;28;20215;-73
2022/06/08 01:42:03;;;;;;;4.70;2.85;;;;;;;21.87;55.15;94229.66;5035550;28;20175;-73
2022/06/08 01:47:41;;;;;;;5.32;2.67;;;;;;;21.83;55.10;94236.31;5036666;28;20227;-72
2022/06/08 01:50:14;;;;;;;3.00;2.70;;;;;;;21.81;55.32;94235.75;5030842;28;20675;-72
2022/06/08 01:52:46;;;;;;;3.42;2.92;;;;;;;21.77;55.34;94230.97;5050390;28;20194;-73
2022/06/08 01:55:23;;;;;;;3.33;3.03;;;;;;;21.77;55.33;94238.00;5050343;28;20723;-73
2022/06/08 01:58:01;;;;;;;4.28;2.90;;;;;;;21.75;55.36;94242.59;5050618;28;20194;-72
2022/06/08 02:00:33;;;;;;;3.08;2.70;;;;;;;21.72;55.32;94232.66;5046625;28;20607;-73
2022/06/08 02:03:09;;;;;;;3.10;2.90;;;;;;;21.70;55.50;94242.47;5030673;28;20184;-73
2022/06/08 02:05:44;;;;;;;2.83;2.63;;;;;;;21.68;55.58;94234.88;5033282;28;20194;-73
2022/06/08 02:08:19;;;;;;;4.47;2.85;;;;;;;21.65;55.61;94237.91;5050744;28;20190;-73
2022/06/08 02:10:53;;;;;;;3.10;2.78;;;;;;;21.64;55.63;94227.72;5044694;28;20187;-74
2022/06/08 02:13:26;;;;;;;3.25;2.63;;;;;;;21.63;55.46;94220.91;5064503;28;20185;-73
2022/06/08 02:15:57;;;;;;;4.45;3.15;;;;;;;21.60;55.61;94219.56;5073745;28;20216;-74
2022/06/08 02:18:29;;;;;;;4.57;3.03;;;;;;;21.60;55.72;94218.78;5072563;28;20202;-73
2022/06/08 02:21:01;;;;;;;4.85;3.30;;;;;;;21.58;55.81;94221.56;5080027;28;20193;-74
2022/06/08 02:23:31;;;;;;;3.30;3.00;;;;;;;21.57;55.93;94221.78;5092155;28;20186;-73
2022/06/08 02:26:06;;;;;;;3.33;3.00;;;;;;;21.56;55.70;94225.41;5079501;28;20178;-73
2022/06/08 02:28:38;;;;;;;3.47;3.17;;;;;;;21.49;55.96;94212.47;5072173;28;20186;-73
2022/06/08 02:31:10;;;;;;;3.15;2.95;;;;;;;21.52;55.72;94217.25;5072202;28;20190;-73
2022/06/08 02:36:30;;;;;;;5.72;2.90;;;;;;;21.47;56.08;94211.91;5072282;28;20227;-75
2022/06/08 02:39:03;;;;;;;3.25;2.95;;;;;;;21.46;56.08;94215.50;5071912;28;20198;-73
2022/06/08 02:41:34;;;;;;;3.50;3.20;;;;;;;21.44;56.06;94217.53;5070900;28;20210;-73
2022/06/08 02:44:06;;;;;;;5.32;2.97;;;;;;;21.43;56.13;94216.75;5074474;28;20229;-72
2022/06/08 02:46:44;;;;;;;3.38;3.03;;;;;;;21.41;56.23;94212.75;5092122;28;20190;-73
2022/06/08 02:49:11;;;;;;;4.50;3.75;;;;;;;21.39;56.31;94220.78;5091707;28;20221;-73
2022/06/08 02:51:43;;;;;;;3.20;2.90;;;;;;;21.37;56.26;94222.00;5092167;28;20271;-73
2022/06/08 02:54:16;;;;;;;3.13;2.92;;;;;;;21.38;56.46;94223.59;5091946;28;20224;-72
2022/06/08 02:57:01;;;;;;;4.13;3.25;;;;;;;21.38;56.50;94224.41;5091658;28;20201;-74
2022/06/08 02:59:37;;;;;;;3.35;3.15;;;;;;;21.37;56.47;94235.78;5091602;28;20192;-72
2022/06/08 03:02:10;;;;;;;4.97;3.50;;;;;;;21.37;56.67;94235.00;5091211;28;20189;-73
2022/06/08 03:04:42;;;;;;;3.20;2.97;;;;;;;21.36;56.83;94238.63;5076764;28;20222;-73
2022/06/08 03:07:17;;;;;;;5.10;3.40;;;;;;;21.36;56.76;94236.03;5071448;28;20197;-73
2022/06/08 03:09:46;;;;;;;4.75;3.53;;;;;;;21.36;56.86;94239.41;5077521;28;20200;-73
2022/06/08 03:12:21;;;;;;;3.67;3.40;;;;;;;21.37;56.83;94245.41;5091518;28;20201;-73
2022/06/08 03:14:48;;;;;;;5.67;3.27;;;;;;;21.38;56.92;94255.63;5091638;28;20242;-73
2022/06/08 03:17:18;;;;;;;3.42;3.13;;;;;;;21.39;56.65;94249.41;5091112;28;20580;-73
2022/06/08 03:19:45;;;;;;;6.55;3.35;;;;;;;21.40;56.87;94242.38;5091394;28;20193;-74
2022/06/08 03:22:14;;;;;;;6.80;3.58;;;;;;;21.40;56.78;94256.19;5090347;28;20270;-74
2022/06/08 03:24:41;;;;;;;3.90;3.03;;;;;;;21.43;56.83;94253.16;5071349;28;20209;-74
2022/06/08 03:27:09;;;;;;;6.70;3.20;;;;;;;21.45;56.90;94251.13;5070841;28;20554;-73
2022/06/08 03:29:37;;;;;;;6.57;3.57;;;;;;;21.41;56.96;94242.16;5071239;28;20182;-73
2022/06/08 03:32:05;;;;;;;3.13;2.80;;;;;;;21.47;56.89;94256.94;5069848;28;20194;-72
2022/06/08 03:34:32;;;;;;;5.07;3.70;;;;;;;21.52;56.99;94257.06;5071043;28;20197;-72
2022/06/08 03:36:59;;;;;;;4.50;3.43;;;;;;;21.54;56.89;94254.25;5070788;28;20208;-74
2022/06/08 03:39:27;;;;;;;4.40;2.90;;;;;;;21.58;56.86;94257.22;5070410;28;20187;-74
2022/06/08 03:41:54;;;;;;;12.48;3.40;;;;;;;21.61;56.92;94252.38;5074905;28;20664;-75
2022/06/08 03:44:21;;;;;;;3.30;3.00;;;;;;;21.66;56.91;94249.13;5090818;28;20216;-74
2022/06/08 03:46:53;;;;;;;5.40;3.13;;;;;;;21.72;56.88;94250.88;5091129;28;20197;-74
2022/06/08 03:49:22;;;;;;;4.60;3.28;;;;;;;21.76;56.76;94247.63;5090747;28;20712;-74
2022/06/08 03:51:51;;;;;;;5.20;3.17;;;;;;;21.80;56.92;94240.13;5089801;28;20209;-73
2022/06/08 03:54:21;;;;;;;4.57;2.90;;;;;;;21.87;56.82;94253.88;5090585;28;20641;-74
2022/06/08 03:56:51;;;;;;;3.08;2.85;;;;;;;21.97;56.54;94248.16;5090950;28;20213;-74
2022/06/08 03:59:18;;;;;;;8.15;3.20;;;;;;;22.05;56.38;94246.06;5090669;28;20190;-74
2022/06/08 04:01:45;;;;;;;7.10;3.42;;;;;;;22.18;56.13;94245.13;5078902;28;20190;-73
2022/06/08 04:04:14;;;;;;;4.30;3.42;;;;;;;22.30;55.98;94247.78;5089124;28;20250;-74
2022/06/08 04:06:41;;;;;;;3.67;3.13;;;;;;;22.43;55.73;94252.81;5089909;28;20201;-72
2022/06/08 04:09:08;;;;;;;5.28;3.55;;;;;;;22.57;55.50;94253.41;5089235;28;20182;-74
2022/06/08 04:11:35;;;;;;;4.65;3.40;;;;;;;22.69;55.38;94245.63;5073888;28;20615;-73
2022/06/08 04:14:02;;;;;;;6.13;3.42;;;;;;;22.79;55.14;94244.06;5083819;28;20189;-73
2022/06/08 04:16:29;;;;;;;6.88;4.18;;;;;;;22.87;54.93;94244.75;5090329;28;20194;-71
2022/06/08 04:18:56;;;;;;;3.97;3.50;;;;;;;22.95;55.07;94234.81;5088713;28;20205;-84
2022/06/08 04:21:24;;;;;;;7.30;4.00;;;;;;;23.00;54.71;94241.97;5091124;28;20201;-83
2022/06/08 04:23:51;;;;;;;5.82;3.75;;;;;;;23.04;54.68;94240.50;5083525;28;20190;-86
2022/06/08 04:26:19;;;;;;;3.63;3.33;;;;;;;23.07;54.71;94236.66;5070405;28;20632;-86
2022/06/08 04:28:46;;;;;;;4.00;3.70;;;;;;;23.04;54.63;94223.03;5076726;28;20185;-83
2022/06/08 04:31:13;;;;;;;4.65;3.58;;;;;;;23.11;54.62;94224.75;5089568;28;20681;-84
2022/06/08 04:33:40;;;;;;;8.77;3.95;;;;;;;23.14;54.61;94226.88;5090362;28;20192;-85
2022/06/08 04:36:08;;;;;;;3.70;3.40;;;;;;;23.14;54.59;94219.06;5089747;28;20197;-84
2022/06/08 04:38:36;;;;;;;14.88;4.97;;;;;;;23.19;56.59;94227.81;5071674;28;20190;-79
2022/06/08 04:41:04;;;;;;;5.85;2.97;;;;;;;23.40;73.36;94226.44;5069911;28;20186;-81
2022/06/08 04:43:31;;;;;;;9.02;4.05;;;;;;;23.62;75.66;94225.81;5079498;28;20193;-77
2022/06/08 04:45:58;;;;;;;10.23;3.70;;;;;;;23.86;75.33;94227.41;5088222;28;20217;-79
2022/06/08 04:48:26;;;;;;;8.05;3.55;;;;;;;24.10;71.30;94235.19;5072839;28;20693;-76
2022/06/08 04:50:53;;;;;;;36.92;8.98;;;;;;;24.25;69.50;94227.63;5069677;28;20677;-81
2022/06/08 04:53:20;;;;;;;14.63;9.52;;;;;;;24.40;71.22;94230.53;5077933;28;20182;-81
2022/06/08 04:55:48;;;;;;;16.60;8.05;;;;;;;24.56;71.27;94228.19;5090226;28;20184;-81
2022/06/08 04:58:16;;;;;;;18.20;6.35;;;;;;;24.71;71.01;94237.09;5088635;28;20189;-81
2022/06/08 05:00:43;;;;;;;10.82;5.75;;;;;;;24.85;69.68;94237.56;5088360;28;20740;-80
2022/06/08 05:03:10;;;;;;;14.80;5.70;;;;;;;25.00;68.54;94242.25;5090051;28;20201;-83
2022/06/08 05:05:39;;;;;;;11.80;4.47;;;;;;;25.13;67.60;94244.59;5091737;28;20231;-76
2022/06/08 05:08:08;;;;;;;16.27;5.07;;;;;;;25.24;65.87;94237.66;5053905;28;20278;-77
2022/06/08 05:10:36;;;;;;;12.10;5.00;;;;;;;25.48;64.56;94249.53;5053960;28;20191;-78
2022/06/08 05:13:05;;;;;;;8.38;4.20;;;;;;;25.71;64.29;94227.56;5053656;28;20191;-79
2022/06/08 05:15:35;;;;;;;11.80;4.03;;;;;;;26.07;62.49;94238.50;5065418;28;20186;-78
2022/06/08 05:18:02;;;;;;;9.63;4.32;;;;;;;26.49;61.34;94235.31;5093696;28;20194;-77
2022/06/08 05:20:30;;;;;;;7.80;3.38;;;;;;;26.98;60.29;94229.94;5094111;28;20202;-80
2022/06/08 05:22:58;;;;;;;6.75;3.17;;;;;;;27.60;59.38;94233.81;5093604;28;20190;-82
2022/06/08 05:25:28;;;;;;;9.63;2.90;;;;;;;28.25;57.92;94243.03;5093752;28;20212;-78
2022/06/08 05:27:55;;;;;;;7.05;2.80;;;;;;;28.95;55.51;94238.16;5093536;28;20190;-80
2022/06/08 05:30:25;;;;;;;5.35;2.60;;;;;;;29.63;53.99;94243.16;5093645;28;20190;-80
2022/06/08 05:32:52;;;;;;;7.15;3.60;;;;;;;30.41;52.09;94251.31;5093390;28;20193;-80
2022/06/08 05:35:19;;;;;;;8.20;2.90;;;;;;;31.14;50.36;94253.22;5093649;28;20271;-80
2022/06/08 05:37:47;;;;;;;7.15;2.92;;;;;;;31.86;48.23;94258.66;5093290;28;20196;-81
2022/06/08 05:40:14;;;;;;;6.35;2.40;;;;;;;32.59;46.33;94264.66;5094006;28;20181;-79
2022/06/08 05:42:42;;;;;;;8.98;2.88;;;;;;;33.28;44.98;94260.44;5093557;28;20181;-80
2022/06/08 05:45:13;;;;;;;4.47;2.85;;;;;;;33.99;43.27;94269.06;5093298;28;20221;-80
2022/06/08 05:47:41;;;;;;;5.63;2.80;;;;;;;34.69;42.07;94270.56;5093224;28;20229;-81
2022/06/08 05:50:09;;;;;;;4.63;2.47;;;;;;;35.36;40.49;94261.84;5093566;28;20561;-82
2022/06/08 05:52:36;;;;;;;2.50;2.30;;;;;;;36.00;39.41;94267.66;5093311;28;20181;-77
2022/06/08 05:55:04;;;;;;;3.95;2.15;;;;;;;36.64;38.02;94257.34;5093233;28;20190;-81
2022/06/08 05:57:30;;;;;;;2.60;2.40;;;;;;;37.26;36.85;94258.09;5093404;28;20193;-78
2022/06/08 05:59:57;;;;;;;3.70;2.50;;;;;;;37.77;35.85;94245.75;5093070;28;20182;-78
2022/06/08 06:02:24;;;;;;;5.10;2.65;;;;;;;38.44;34.92;94263.69;5093311;28;20189;-80
2022/06/08 06:04:53;;;;;;;3.55;2.40;;;;;;;38.99;34.24;94262.69;5092725;28;20228;-82
2022/06/08 06:07:20;;;;;;;5.53;3.28;;;;;;;39.49;33.53;94264.41;5093403;28;20185;-77
2022/06/08 06:09:46;;;;;;;4.38;2.75;;;;;;;39.97;32.60;94262.94;5063804;28;20267;-82
2022/06/08 06:12:13;;;;;;;4.20;2.42;;;;;;;40.38;31.53;94256.59;5052475;28;20643;-84
2022/06/08 06:14:40;;;;;;;5.65;2.80;;;;;;;40.71;31.03;94262.94;5060560;28;20189;-86
2022/06/08 06:17:07;;;;;;;4.32;2.80;;;;;;;40.84;30.83;94254.50;5092830;28;20201;-80
2022/06/08 06:19:34;;;;;;;3.88;2.22;;;;;;;40.88;29.95;94255.38;5092789;28;20702;-81
2022/06/08 06:22:03;;;;;;;2.85;2.50;;;;;;;40.93;29.27;94250.91;5074638;28;20626;-82
2022/06/08 06:24:30;;;;;;;6.95;2.53;;;;;;;40.98;29.24;94240.75;5071166;28;20194;-78
2022/06/08 06:26:57;;;;;;;7.43;2.88;;;;;;;41.23;29.11;94246.00;5071047;28;20218;-79
2022/06/08 06:29:24;;;;;;;3.92;2.53;;;;;;;41.39;28.86;94246.06;5071640;28;20186;-82
2022/06/08 06:31:54;;;;;;;3.15;2.78;;;;;;;41.46;28.78;94246.25;5071725;28;20194;-81
2022/06/08 06:34:24;;;;;;;3.28;2.40;;;;;;;41.41;28.38;94235.75;5072164;28;20182;-83
2022/06/08 06:36:53;;;;;;;4.07;2.55;;;;;;;41.39;27.80;94244.16;5075390;28;20671;-83
2022/06/08 06:39:22;;;;;;;5.70;2.35;;;;;;;41.31;27.70;94237.00;5070764;28;20225;-81
2022/06/08 06:41:50;;;;;;;3.30;2.53;;;;;;;41.15;28.06;94234.28;5075655;28;20197;-79
2022/06/08 06:44:17;;;;;;;4.03;2.42;;;;;;;40.97;27.88;94231.13;5080109;28;20203;-79
2022/06/08 06:46:44;;;;;;;3.10;2.53;;;;;;;40.93;28.07;94229.44;5072215;28;20230;-79
2022/06/08 06:49:11;;;;;;;4.68;2.30;;;;;;;40.93;28.00;94232.88;5073660;28;20221;-83
2022/06/08 06:51:38;;;;;;;4.35;2.03;;;;;;;40.97;28.39;94220.38;5072423;28;20175;-83
2022/06/08 06:54:07;;;;;;;2.55;2.35;;;;;;;41.09;28.40;94223.03;5072796;28;20190;-82
2022/06/08 06:56:36;;;;;;;3.55;2.20;;;;;;;41.23;28.43;94219.16;5070194;28;20186;-80
2022/06/08 06:59:05;;;;;;;4.05;2.30;;;;;;;41.47;28.17;94235.16;5072845;28;20194;-87
2022/06/08 07:01:34;;;;;;;4.63;2.25;;;;;;;41.70;28.09;94226.50;5076377;28;20194;-86
2022/06/08 07:04:01;;;;;;;2.85;2.10;;;;;;;41.85;27.97;94218.47;5073484;28;20205;-85
2022/06/08 07:06:29;;;;;;;6.68;2.03;;;;;;;42.10;27.33;94227.13;5077036;28;20221;-85
2022/06/08 07:08:59;;;;;;;3.75;2.20;;;;;;;42.29;26.82;94226.41;5078142;28;20394;-92
2022/06/08 07:11:39;;;;;;;3.40;2.00;;;;;;;42.53;27.06;94236.16;5075627;28;20216;-84
2022/06/08 07:14:13;;;;;;;4.45;2.35;;;;;;;42.76;27.02;94233.56;5075635;28;20233;-85
2022/06/08 07:16:40;;;;;;;4.03;2.22;;;;;;;42.96;26.27;94231.63;5074171;28;20218;-86
2022/06/08 07:19:08;;;;;;;4.10;1.85;;;;;;;43.24;25.67;94233.34;5074122;28;20201;-86
2022/06/08 07:21:35;;;;;;;4.13;2.25;;;;;;;43.46;25.95;94229.94;5071986;28;20807;-84
2022/06/08 07:24:02;;;;;;;4.32;2.05;;;;;;;43.55;25.46;94229.69;5073370;28;20181;-87
2022/06/08 07:26:30;;;;;;;5.07;1.88;;;;;;;43.61;25.25;94232.84;5070568;28;20255;-86
2022/06/08 07:28:57;;;;;;;7.45;2.00;;;;;;;43.65;24.80;94234.47;5071482;28;20202;-86
2022/06/08 07:31:27;;;;;;;3.78;2.22;;;;;;;43.74;24.58;94235.03;5071394;28;20204;-87
2022/06/08 07:33:54;;;;;;;1.90;1.73;;;;;;;43.83;24.54;94232.09;5070893;28;20263;-85
2022/06/08 07:36:21;;;;;;;4.60;2.10;;;;;;;43.89;24.95;94227.19;5071372;28;20198;-77
2022/06/08 07:38:48;;;;;;;3.05;1.90;;;;;;;44.02;24.92;94234.72;5073256;28;20185;-84
2022/06/08 07:41:15;;;;;;;5.50;2.85;;;;;;;44.15;24.29;94235.28;5090882;28;20170;-79
2022/06/08 07:43:42;;;;;;;7.15;2.08;;;;;;;44.28;24.37;94238.59;5095997;28;20182;-80
2022/06/08 07:46:10;;;;;;;4.63;2.10;;;;;;;44.37;24.48;94235.63;5091711;28;20210;-87
2022/06/08 07:51:23;;;;;;;3.92;2.22;;;;;;;44.50;24.43;94239.66;5072217;28;20220;-86
2022/06/08 07:53:50;;;;;;;2.50;2.30;;;;;;;44.59;24.00;94244.78;5074415;28;20204;-87
2022/06/08 07:56:17;;;;;;;7.00;2.25;;;;;;;44.60;23.95;94246.31;5073397;28;20432;-88
2022/06/08 07:58:44;;;;;;;4.25;2.38;;;;;;;44.62;23.66;94238.66;5071190;28;20190;-84
2022/06/08 08:01:10;;;;;;;5.20;2.70;;;;;;;44.62;24.03;94238.66;5069549;28;20615;-87
2022/06/08 08:03:39;;;;;;;5.70;2.53;;;;;;;44.59;24.20;94232.06;5071031;28;20201;-87
2022/06/08 08:06:09;;;;;;;4.43;2.70;;;;;;;44.56;24.11;94235.47;5073168;28;20618;-87
2022/06/08 08:08:36;;;;;;;4.03;3.05;;;;;;;44.53;23.59;94236.22;5070031;28;20673;-85
2022/06/08 08:11:04;;;;;;;3.97;2.15;;;;;;;44.47;23.67;94232.28;5074518;28;20190;-80
2022/06/08 08:13:31;;;;;;;3.83;2.70;;;;;;;44.37;24.09;94216.75;5070925;28;20208;-87
2022/06/08 08:15:57;;;;;;;3.25;2.42;;;;;;;44.36;23.71;94223.28;5072713;28;20201;-87
2022/06/08 08:18:24;;;;;;;7.78;2.50;;;;;;;44.29;23.71;94218.56;5070358;28;20193;-87
2022/06/08 08:20:53;;;;;;;3.78;2.47;;;;;;;44.20;23.50;94218.78;5069909;28;20201;-86
2022/06/08 08:23:19;;;;;;;2.35;2.15;;;;;;;44.12;23.86;94216.34;5070759;28;20660;-87
2022/06/08 08:25:46;;;;;;;3.58;2.80;;;;;;;44.03;23.93;94203.91;5070591;28;20209;-84
2022/06/08 08:28:13;;;;;;;2.67;2.47;;;;;;;43.93;23.75;94204.53;5070024;28;20193;-82
2022/06/08 08:30:40;;;;;;;4.18;2.53;;;;;;;43.83;23.94;94205.13;5070891;28;20186;-87
2022/06/08 08:33:07;;;;;;;2.65;2.45;;;;;;;43.72;23.43;94204.97;5070347;28;20193;-84
2022/06/08 08:35:35;;;;;;;5.03;2.70;;;;;;;43.62;23.41;94208.25;5070599;28;20695;-86
2022/06/08 08:38:04;;;;;;;3.42;2.65;;;;;;;43.48;23.69;94203.41;5070337;28;20189;-86
2022/06/08 08:40:44;;;;;;;4.20;2.55;;;;;;;43.32;24.00;94200.03;5070605;28;20190;-80
2022/06/08 08:43:13;;;;;;;4.82;2.33;;;;;;;43.16;23.88;94194.75;5074255;28;20231;-85
2022/06/08 08:46:08;;;;;;;8.10;2.72;;;;;;;42.99;23.97;94192.47;5071789;28;20218;-87
2022/06/08 08:48:47;;;;;;;3.53;2.67;;;;;;;42.83;23.72;94195.25;5072683;28;20248;-87
2022/06/08 08:51:20;;;;;;;6.18;2.80;;;;;;;42.68;24.13;94186.13;5072847;28;20196;-82
2022/06/08 08:54:01;;;;;;;2.65;2.45;;;;;;;42.53;23.92;94182.34;5074842;28;20215;-86
2022/06/08 08:56:33;;;;;;;4.90;2.80;;;;;;;42.39;24.23;94190.13;5095299;28;20238;-76
2022/06/08 08:59:01;;;;;;;2.45;2.25;;;;;;;42.24;24.00;94189.03;5094688;28;20207;-82
2022/06/08 09:01:30;;;;;;;2.45;2.00;;;;;;;42.06;24.07;94179.78;5084487;28;20198;-82
2022/06/08 09:04:06;;;;;;;3.58;2.20;;;;;;;41.98;24.01;94188.81;5083309;28;20664;-82
2022/06/08 09:06:36;;;;;;;2.90;2.33;;;;;;;41.83;24.56;94183.09;5070305;28;20198;-73
2022/06/08 09:09:14;;;;;;;4.63;2.13;;;;;;;41.68;23.93;94178.50;5071826;28;20202;-85
2022/06/08 09:11:43;;;;;;;3.05;2.10;;;;;;;41.50;24.21;94172.72;5078878;28;20193;-81
2022/06/08 09:14:15;;;;;;;3.15;2.22;;;;;;;41.36;24.62;94172.31;5068736;28;20182;-86
2022/06/08 09:16:45;;;;;;;2.60;2.40;;;;;;;41.22;24.11;94171.97;5068503;28;20672;-87
2022/06/08 09:19:32;;;;;;;3.00;2.33;;;;;;;41.02;24.49;94171.06;5068702;28;20193;-86
2022/06/08 09:22:19;;;;;;;2.45;2.10;;;;;;;40.85;24.19;94166.78;5070658;28;20233;-86
2022/06/08 09:24:50;;;;;;;2.35;2.15;;;;;;;40.67;24.17;94174.31;5068919;28;20197;-79
2022/06/08 09:27:22;;;;;;;4.72;2.45;;;;;;;40.51;24.37;94165.44;5064304;28;20222;-86
2022/06/08 09:29:53;;;;;;;3.45;1.88;;;;;;;40.34;24.50;94161.91;5066779;28;20623;-84
2022/06/08 09:32:30;;;;;;;3.80;2.22;;;;;;;40.19;24.90;94164.50;5067548;28;20890;-84
2022/06/08 09:35:00;;;;;;;3.33;2.22;;;;;;;40.04;25.20;94161.38;5067224;28;20288;-84
2022/06/08 09:37:27;;;;;;;2.97;2.00;;;;;;;39.87;25.07;94156.28;5066767;28;20198;-86
2022/06/08 09:40:01;;;;;;;5.03;2.10;;;;;;;39.71;25.08;94160.75;5068712;28;20186;-83
2022/06/08 09:42:56;;;;;;;2.70;2.08;;;;;;;39.55;25.27;94153.34;5064998;28;20641;-84
2022/06/08 09:45:38;;;;;;;2.80;2.00;;;;;;;39.34;25.60;94148.09;5065847;28;20217;-83
2022/06/08 09:51:29;;;;;;;6.55;2.30;;;;;;;38.94;25.60;94141.75;5065925;28;20734;-84
2022/06/08 09:54:14;;;;;;;3.60;2.00;;;;;;;38.76;25.45;94143.78;5072568;28;20193;-83
2022/06/08 09:56:56;;;;;;;9.93;2.28;;;;;;;38.55;25.68;94138.47;5072506;28;20243;-85
2022/06/08 09:59:42;;;;;;;2.20;2.10;;;;;;;38.36;25.96;94137.06;5071667;28;20225;-83
2022/06/08 10:02:29;;;;;;;2.53;2.33;;;;;;;38.18;25.79;94132.16;5070152;28;20269;-85
2022/06/08 10:05:10;;;;;;;3.97;2.30;;;;;;;37.92;26.08;94138.44;5074315;28;20220;-85
2022/06/08 10:07:48;;;;;;;3.55;2.20;;;;;;;37.74;26.35;94128.94;5073245;28;20218;-85
2022/06/08 10:10:30;;;;;;;3.80;2.40;;;;;;;37.58;26.45;94123.38;5071580;28;20202;-84
2022/06/08 10:13:00;;;;;;;6.13;2.38;;;;;;;37.45;26.67;94125.16;5072496;28;20657;-85
2022/06/08 10:15:34;;;;;;;2.42;2.10;;;;;;;37.30;26.53;94121.09;5071959;28;20711;-85
2022/06/08 10:18:11;;;;;;;2.38;2.15;;;;;;;37.17;26.89;94122.88;5071020;28;20202;-82
2022/06/08 10:20:41;;;;;;;3.53;2.30;;;;;;;37.04;26.67;94109.75;5071806;28;20202;-84
2022/06/08 10:23:26;;;;;;;3.88;2.42;;;;;;;36.93;27.11;94120.00;5072211;28;20202;-83
2022/06/08 10:26:00;;;;;;;3.13;2.75;;;;;;;36.77;27.16;94111.69;5072021;28;20200;-83
2022/06/08 10:28:34;;;;;;;2.67;2.42;;;;;;;36.63;27.36;94111.88;5072334;28;20225;-85
2022/06/08 10:31:05;;;;;;;2.10;1.67;;;;;;;36.50;27.26;94104.84;5071893;28;20256;-84
2022/06/08 10:33:40;;;;;;;2.13;1.92;;;;;;;36.35;27.19;94103.41;5071746;28;20668;-82
2022/06/08 10:36:10;;;;;;;3.55;1.83;;;;;;;36.26;27.27;94088.53;5069925;28;20208;-84
2022/06/08 10:38:41;;;;;;;3.33;2.15;;;;;;;36.21;27.28;94100.13;5071325;28;20224;-81
2022/06/08 10:44:35;;;;;;;3.30;1.92;;;;;;;35.91;27.62;94083.94;5070189;28;20186;-85
2022/06/08 10:47:18;;;;;;;2.28;2.08;;;;;;;35.89;27.63;94094.13;5071474;28;20236;-83
2022/06/08 10:49:52;;;;;;;3.47;2.08;;;;;;;35.78;27.61;94092.84;5069810;28;20276;-83
2022/06/08 10:52:29;;;;;;;8.63;2.20;;;;;;;35.71;28.06;94089.91;5071054;28;20194;-84
2022/06/08 10:55:31;;;;;;;2.17;2.08;;;;;;;35.62;28.05;94094.38;5071679;28;20183;-79
2022/06/08 10:58:07;;;;;;;3.05;2.08;;;;;;;35.51;27.82;94093.91;5069099;28;20201;-83
2022/06/08 11:01:15;;;;;;;5.20;2.30;;;;;;;35.44;28.16;94083.69;5070875;28;20204;-75
2022/06/08 11:04:07;;;;;;;1.95;1.85;;;;;;;35.35;28.03;94087.41;5070587;28;20731;-84
2022/06/08 11:07:04;;;;;;;3.53;1.85;;;;;;;35.27;28.15;94094.25;4987770;28;20279;-81
2022/06/08 11:09:57;;;;;;;1.88;1.77;;;;;;;35.18;28.42;94088.13;4988674;28;20197;-85
2022/06/08 11:12:32;;;;;;;2.65;2.45;;;;;;;35.10;28.20;94079.03;4988975;28;20189;-78
2022/06/08 11:15:04;;;;;;;5.47;2.33;;;;;;;35.04;28.35;94079.50;4987151;28;20310;-83
2022/06/08 11:17:35;;;;;;;4.63;1.90;;;;;;;34.97;28.32;94079.91;4987542;28;20197;-83
2022/06/08 11:20:13;;;;;;;2.30;2.10;;;;;;;34.88;28.56;94074.53;4991432;28;20204;-79
2022/06/08 11:22:44;;;;;;;4.72;2.10;;;;;;;34.80;28.36;94077.91;4989067;28;20201;-82
2022/06/08 11:25:18;;;;;;;3.30;2.10;;;;;;;34.73;28.87;94066.19;4988432;28;20584;-83
2022/06/08 11:27:45;;;;;;;2.53;2.10;;;;;;;34.66;28.94;94064.72;4988083;28;20603;-83
2022/06/08 11:30:42;;;;;;;2.30;2.10;;;;;;;34.61;28.72;94064.88;4988121;28;20197;-84
2022/06/08 11:33:19;;;;;;;3.17;1.95;;;;;;;34.54;28.77;94059.19;4984802;28;20685;-82
2022/06/08 11:36:17;;;;;;;2.58;2.38;;;;;;;34.45;29.08;94045.81;4984208;28;20177;-85
2022/06/08 11:38:55;;;;;;;2.05;1.95;;;;;;;34.37;29.10;94049.25;4988705;28;20201;-85
2022/06/08 11:41:35;;;;;;;2.22;2.00;;;;;;;34.31;28.80;94047.00;4985157;28;20280;-87
2022/06/08 11:44:11;;;;;;;5.28;2.40;;;;;;;34.27;28.88;94040.72;5059703;28;20200;-84
2022/06/08 11:46:41;;;;;;;2.22;2.03;;;;;;;34.21;29.05;94040.06;5070922;28;20249;-83
2022/06/08 11:49:28;;;;;;;3.50;2.28;;;;;;;34.17;29.18;94041.75;5070825;28;20291;-81
2022/06/08 11:51:55;;;;;;;2.45;1.92;;;;;;;34.12;29.30;94034.69;5071471;28;20216;-85
2022/06/08 11:54:25;;;;;;;2.30;2.10;;;;;;;34.10;29.54;94028.13;5071163;28;20269;-82
2022/06/08 11:57:05;;;;;;;4.22;2.17;;;;;;;34.05;29.64;94021.06;5072334;28;20194;-80
2022/06/08 11:59:37;;;;;;;4.18;2.60;;;;;;;34.00;29.84;94020.41;5069807;28;20186;-84
2022/06/08 12:02:18;;;;;;;2.25;1.98;;;;;;;33.92;29.72;94008.59;5073514;28;20205;-80
2022/06/08 12:04:50;;;;;;;4.50;2.30;;;;;;;33.89;29.56;94015.28;5070835;28;20251;-84
2022/06/08 12:07:46;;;;;;;5.70;2.30;;;;;;;33.84;29.82;94012.75;5071795;28;20337;-83
2022/06/08 12:10:17;;;;;;;4.22;2.10;;;;;;;33.78;29.73;94015.84;5069789;28;20194;-84